OPO weather

Francisco de Sá Carneiro Airport
Porto, Oporto District, Portugal

Public forecast

Using degrees Celsius for public forecast. Weather courtesy of forecast.io.

Current aviation weather report (METAR) for Francisco de Sá Carneiro Airport

Retrieved 2019/10/19 01:30 UTC (0 seconds ago):

LPPR 190130Z 19013KT 9000 -RADZ BKN008 OVC012 15/15 Q1011

Aviation forecast (TAF) for Francisco de Sá Carneiro Airport

Retrieved 2019-10-19 00:18 UTC (1 hour ago):

TAF TAF LPPR 182300Z 1900/1924 18015KT 6000 -RADZ BR SCT006 BKN012 TEMPO 1900/1912 18020G30KT 2000 RADZ BR SCT002 BKN004 PROB40 TEMPO 1904/1912 1200 +RA BKN002 FEW018CB BECMG 1912/1914 35010KT 9999 NSW SCT030 TEMPO 1912/1921 8000 SHRA BKN015 FEW018CB PROB40 TEMPO 1912/1918 VRB15G25KT 3000 +TSRA SCT016CB